KJAN/JAN METAR and TAF weather

Enter ICAO airport designator
Station Type Date Time Source
KJAN METAR 2019/05/21 20:54 UTC NOAA

KJAN 212054Z 17015G23KT 10SM SCT060 32/18 A2982 RMK AO2 SLP091 T03170178 58011


Station Type Date Time Source
KJAN Decoded METAR 2019/05/21 20:54 UTC NOAA

Jackson, Jackson International Airport, MS, United States (KJAN) 32-19-11N 090-04-39W 89M
May 21, 2019 - 04:54 PM EDT / 2019.05.21 2054 UTC
Wind: from the S (170 degrees) at 17 MPH (15 KT) gusting to 26 MPH (23 KT):0
Visibility: 10 mile(s):0
Sky conditions: partly cloudy
Temperature: 89.1 F (31.7 C)
Dew Point: 64.0 F (17.8 C)
Relative Humidity: 43%
Pressure (altimeter): 29.82 in. Hg (1009 hPa)
Pressure tendency: 0.03 inches (1.1 hPa) lower than three hours ago
ob: KJAN 212054Z 17015G23KT 10SM SCT060 32/18 A2982 RMK AO2 SLP091 T03170178 58011
cycle: 21

Station Type Date Time Source
KJAN TAF 2019/05/21 18:27 UTC NOAA

TAF KJAN 211724Z 2118/2218 16018G25KT P6SM SCT030
FM221200 16013KT P6SM OVC015
FM221600 17013G19KT P6SM BKN050

Example: see airport list